createdAt,value
2022-11-06T00:01:32.877Z,8.30
2022-11-06T00:03:59.887Z,8.25
2022-11-06T00:06:45.218Z,11.75
2022-11-06T00:09:14.199Z,15.70
2022-11-06T00:11:41.983Z,10.68
2022-11-06T00:14:09.349Z,12.43
2022-11-06T00:16:38.890Z,10.98
2022-11-06T00:19:06.735Z,7.43
2022-11-06T00:21:34.475Z,11.05
2022-11-06T00:24:03.904Z,8.00
2022-11-06T00:26:32.144Z,7.32
2022-11-06T00:28:59.855Z,13.30
2022-11-06T00:31:29.529Z,9.95
2022-11-06T00:33:58.674Z,9.88
2022-11-06T00:36:27.396Z,12.75
2022-11-06T00:38:55.627Z,12.25
2022-11-06T00:41:23.516Z,8.57
2022-11-06T00:44:01.993Z,6.70
2022-11-06T00:46:29.634Z,12.38
2022-11-06T00:48:56.997Z,7.28
2022-11-06T00:51:26.925Z,11.02
2022-11-06T00:53:56.136Z,9.43
2022-11-06T00:56:23.789Z,7.53
2022-11-06T00:58:51.003Z,7.38
2022-11-06T01:01:31.339Z,7.20
2022-11-06T01:04:04.059Z,12.02
2022-11-06T01:06:36.534Z,7.00
2022-11-06T01:09:04.888Z,6.88
2022-11-06T01:11:59.406Z,9.82
2022-11-06T01:14:24.311Z,6.00
2022-11-06T01:16:51.676Z,6.80
2022-11-06T01:19:20.952Z,4.90
2022-11-06T01:21:49.708Z,4.50
2022-11-06T01:24:21.516Z,9.57
2022-11-06T01:27:05.320Z,7.85
2022-11-06T01:29:36.194Z,5.90
2022-11-06T01:32:03.913Z,7.55
2022-11-06T01:34:30.955Z,5.95
2022-11-06T01:36:57.794Z,7.88
2022-11-06T01:39:24.733Z,6.13
2022-11-06T01:41:53.289Z,7.57
2022-11-06T01:44:35.344Z,5.55
2022-11-06T01:47:04.719Z,4.60
2022-11-06T01:49:36.499Z,7.22
2022-11-06T01:52:07.955Z,4.88
2022-11-06T01:54:36.962Z,3.75
2022-11-06T01:57:05.357Z,7.25
2022-11-06T01:59:35.240Z,4.30
2022-11-06T02:02:02.558Z,3.90
2022-11-06T02:04:33.943Z,5.13
2022-11-06T02:07:02.148Z,4.22
2022-11-06T02:09:32.007Z,6.15
2022-11-06T02:12:18.339Z,4.50
2022-11-06T02:15:00.408Z,5.97
2022-11-06T02:17:33.039Z,6.55
2022-11-06T02:20:17.955Z,4.15
2022-11-06T02:23:03.394Z,3.85
2022-11-06T02:26:01.198Z,6.20
2022-11-06T02:28:52.392Z,5.82
2022-11-06T02:31:26.320Z,4.18
2022-11-06T02:33:59.752Z,6.05
2022-11-06T02:36:31.279Z,4.50
2022-11-06T02:39:02.152Z,5.43
2022-11-06T02:41:34.191Z,5.03
2022-11-06T02:44:02.840Z,3.75
2022-11-06T02:46:41.285Z,3.28
2022-11-06T02:49:14.439Z,3.80
2022-11-06T02:51:47.627Z,4.07
2022-11-06T02:54:16.283Z,4.07
2022-11-06T02:56:46.041Z,5.22
2022-11-06T02:59:19.159Z,4.63
2022-11-06T03:01:52.091Z,4.18
2022-11-06T03:04:27.679Z,4.65
2022-11-06T03:07:09.010Z,4.80
2022-11-06T03:09:37.144Z,5.78
2022-11-06T03:12:28.373Z,4.18
2022-11-06T03:15:06.609Z,4.47
2022-11-06T03:17:56.691Z,6.55
2022-11-06T03:20:30.336Z,3.50
2022-11-06T03:23:05.950Z,2.55
2022-11-06T03:25:51.201Z,5.65
2022-11-06T03:28:32.720Z,5.72
2022-11-06T03:31:05.437Z,3.03
2022-11-06T03:33:54.282Z,3.40
2022-11-06T03:36:40.026Z,5.72
2022-11-06T03:39:10.903Z,3.92
2022-11-06T03:41:44.223Z,4.95
2022-11-06T03:44:23.089Z,5.43
2022-11-06T03:47:07.332Z,4.13
2022-11-06T03:49:41.770Z,3.28
2022-11-06T03:52:17.355Z,2.47
2022-11-06T03:55:07.761Z,3.80
2022-11-06T03:57:42.516Z,3.58
2022-11-06T04:00:10.131Z,3.55
2022-11-06T04:02:41.510Z,3.97
2022-11-06T04:05:24.721Z,3.08
2022-11-06T04:08:15.085Z,6.22
2022-11-06T04:11:04.991Z,5.72
2022-11-06T04:13:53.651Z,3.53
2022-11-06T04:16:21.595Z,5.47
2022-11-06T04:18:48.472Z,3.97
2022-11-06T04:21:27.635Z,3.75
2022-11-06T04:25:04.001Z,4.30
2022-11-06T04:27:38.517Z,4.40
2022-11-06T04:30:15.883Z,3.75
2022-11-06T04:33:12.487Z,3.90
2022-11-06T04:35:45.390Z,4.60
2022-11-06T04:38:44.575Z,5.18
2022-11-06T04:41:18.315Z,5.00
2022-11-06T04:44:03.966Z,4.97
2022-11-06T04:46:37.319Z,2.60
2022-11-06T04:49:06.228Z,2.72
2022-11-06T04:51:39.010Z,4.53
2022-11-06T04:54:09.368Z,5.70
2022-11-06T04:56:40.107Z,4.25
2022-11-06T04:59:16.085Z,4.97
2022-11-06T05:01:43.104Z,4.80
2022-11-06T05:04:11.723Z,5.45
2022-11-06T05:06:38.657Z,3.15
2022-11-06T05:09:05.686Z,3.88
2022-11-06T05:11:32.857Z,3.05
2022-11-06T05:13:59.758Z,3.78
2022-11-06T05:16:26.812Z,3.85
2022-11-06T05:18:53.695Z,3.03
2022-11-06T05:21:39.066Z,4.55
2022-11-06T05:24:06.644Z,4.47
2022-11-06T05:26:34.323Z,3.38
2022-11-06T05:29:01.199Z,2.80
2022-11-06T05:31:28.442Z,2.20
2022-11-06T05:33:55.335Z,3.33
2022-11-06T05:36:22.223Z,2.83
2022-11-06T05:38:49.110Z,2.45
2022-11-06T05:41:16.274Z,4.05
2022-11-06T05:43:43.560Z,3.85
2022-11-06T05:46:29.663Z,3.20
2022-11-06T05:48:57.368Z,3.05
2022-11-06T05:51:24.262Z,6.57
2022-11-06T05:53:51.323Z,4.13
2022-11-06T05:56:18.219Z,4.75
2022-11-06T05:58:45.344Z,4.43
2022-11-06T06:01:13.050Z,4.05
2022-11-06T06:03:40.269Z,3.85
2022-11-06T06:06:07.219Z,4.07
2022-11-06T06:08:34.049Z,4.28
2022-11-06T06:11:01.253Z,4.97
2022-11-06T06:13:28.263Z,4.28
2022-11-06T06:15:55.198Z,5.60
2022-11-06T06:18:22.122Z,4.65
2022-11-06T06:20:49.012Z,5.00
2022-11-06T06:23:16.056Z,2.90
2022-11-06T06:25:42.991Z,5.70
2022-11-06T06:28:09.974Z,5.18
2022-11-06T06:30:36.973Z,5.47
2022-11-06T06:33:07.457Z,4.35
2022-11-06T06:35:34.923Z,4.10
2022-11-06T06:38:01.874Z,2.97
2022-11-06T06:40:29.875Z,3.83
2022-11-06T06:42:58.082Z,5.18
2022-11-06T06:45:26.303Z,4.72
2022-11-06T06:47:53.250Z,4.60
2022-11-06T06:50:20.505Z,4.05
2022-11-06T06:52:47.704Z,4.03
2022-11-06T06:55:14.664Z,4.38
2022-11-06T06:57:41.663Z,4.13
2022-11-06T07:00:09.185Z,3.67
2022-11-06T07:02:36.051Z,4.10
2022-11-06T07:05:02.992Z,4.55
2022-11-06T07:07:30.127Z,5.38
2022-11-06T07:09:57.058Z,3.90
2022-11-06T07:12:24.035Z,3.85
2022-11-06T07:14:51.210Z,5.03
2022-11-06T07:17:18.210Z,5.15
2022-11-06T07:19:45.124Z,3.83
2022-11-06T07:22:11.996Z,4.35
2022-11-06T07:24:39.713Z,4.97
2022-11-06T07:27:06.656Z,4.25
2022-11-06T07:29:34.036Z,5.45
2022-11-06T07:32:00.939Z,3.55
2022-11-06T07:34:27.907Z,3.15
2022-11-06T07:36:54.863Z,5.90
2022-11-06T07:39:21.703Z,3.80
2022-11-06T07:41:48.587Z,5.35
2022-11-06T07:44:15.542Z,5.53
2022-11-06T07:46:43.033Z,5.47
2022-11-06T07:49:10.587Z,5.47
2022-11-06T07:51:37.567Z,6.28
2022-11-06T07:54:04.597Z,4.25
2022-11-06T07:56:31.820Z,6.53
2022-11-06T07:58:58.717Z,6.20
2022-11-06T08:01:25.839Z,4.80
2022-11-06T08:03:52.800Z,5.40
2022-11-06T08:06:20.403Z,5.00
2022-11-06T08:08:47.383Z,5.55
2022-11-06T08:11:15.084Z,4.68
2022-11-06T08:13:42.059Z,5.30
2022-11-06T08:16:13.933Z,6.03
2022-11-06T08:18:41.725Z,6.15
2022-11-06T08:21:08.671Z,6.20
2022-11-06T08:23:37.344Z,5.88
2022-11-06T08:26:06.350Z,6.00
2022-11-06T08:28:33.676Z,4.13
2022-11-06T08:31:05.744Z,5.13
2022-11-06T08:33:32.973Z,5.13
2022-11-06T08:36:03.934Z,5.55
2022-11-06T08:38:30.868Z,4.63
2022-11-06T08:40:57.829Z,6.28
2022-11-06T08:43:26.702Z,5.25
2022-11-06T08:45:53.746Z,4.32
2022-11-06T08:48:20.686Z,3.67
2022-11-06T08:50:47.768Z,4.95
2022-11-06T08:53:15.141Z,4.22
2022-11-06T08:55:42.601Z,3.95
2022-11-06T08:58:09.833Z,6.80
2022-11-06T09:00:37.400Z,4.50
2022-11-06T09:03:07.490Z,4.65
2022-11-06T09:05:34.731Z,4.80
2022-11-06T09:08:02.095Z,5.40
2022-11-06T09:10:29.039Z,4.88
2022-11-06T09:12:58.740Z,5.50
2022-11-06T09:15:26.606Z,4.97
2022-11-06T09:17:54.576Z,4.63
2022-11-06T09:20:22.613Z,4.53
2022-11-06T09:22:50.006Z,5.13
2022-11-06T09:25:17.453Z,4.78
2022-11-06T09:27:48.808Z,4.70
2022-11-06T09:30:18.087Z,4.70
2022-11-06T09:32:50.018Z,4.55
2022-11-06T09:35:17.339Z,4.75
2022-11-06T09:37:44.843Z,3.80
2022-11-06T09:40:26.712Z,4.20
2022-11-06T09:43:12.267Z,4.43
2022-11-06T09:45:41.262Z,5.23
2022-11-06T09:48:12.316Z,4.50
2022-11-06T09:50:53.111Z,5.97
2022-11-06T09:53:31.164Z,6.07
2022-11-06T09:56:00.279Z,5.88
2022-11-06T09:58:38.491Z,4.90
2022-11-06T10:01:26.849Z,5.75
2022-11-06T10:04:00.424Z,4.18
2022-11-06T10:06:28.946Z,5.15
2022-11-06T10:09:07.390Z,5.43
2022-11-06T10:11:52.880Z,5.00
2022-11-06T10:14:54.850Z,4.75
2022-11-06T10:17:31.943Z,5.43
2022-11-06T10:20:11.023Z,5.75
2022-11-06T10:23:07.909Z,5.93
2022-11-06T10:25:43.557Z,4.88
2022-11-06T10:28:13.427Z,6.68
2022-11-06T10:30:55.538Z,5.10
2022-11-06T10:33:53.014Z,4.70
2022-11-06T10:36:51.053Z,5.35
2022-11-06T10:39:22.505Z,5.88
2022-11-06T10:41:54.174Z,5.40
2022-11-06T10:44:53.255Z,4.60
2022-11-06T10:47:22.625Z,5.28
2022-11-06T10:49:53.669Z,4.93
2022-11-06T10:52:46.165Z,6.20
2022-11-06T10:55:52.014Z,6.05
2022-11-06T10:58:22.396Z,5.50
2022-11-06T11:00:50.633Z,6.72
2022-11-06T11:03:33.176Z,8.05
2022-11-06T11:06:01.907Z,9.20
2022-11-06T11:08:43.692Z,8.73
2022-11-06T11:11:13.672Z,6.78
2022-11-06T11:13:45.808Z,8.68
2022-11-06T11:16:18.516Z,8.23
2022-11-06T11:18:46.320Z,8.43
2022-11-06T11:21:28.035Z,8.35
2022-11-06T11:24:00.808Z,9.65
2022-11-06T11:26:30.793Z,9.85
2022-11-06T11:29:11.442Z,9.00
2022-11-06T11:31:38.899Z,11.32
2022-11-06T11:34:15.929Z,12.02
2022-11-06T11:36:55.704Z,10.27
2022-11-06T11:39:28.231Z,9.25
2022-11-06T11:42:15.158Z,12.55
2022-11-06T11:44:42.062Z,10.00
2022-11-06T11:47:23.651Z,10.57
2022-11-06T11:49:50.710Z,13.02
2022-11-06T11:52:21.618Z,11.90
2022-11-06T11:54:53.964Z,10.85
2022-11-06T11:57:25.516Z,12.23
2022-11-06T11:59:57.700Z,11.90
2022-11-06T12:02:27.661Z,11.88
2022-11-06T12:05:21.222Z,11.73
2022-11-06T12:07:52.267Z,13.35
2022-11-06T12:10:35.692Z,12.77
2022-11-06T12:13:05.956Z,13.40
2022-11-06T12:15:55.605Z,13.95
2022-11-06T12:18:28.676Z,12.52
2022-11-06T12:21:05.309Z,15.15
2022-11-06T12:24:04.610Z,15.27
2022-11-06T12:26:48.578Z,14.07
2022-11-06T12:29:20.437Z,15.68
2022-11-06T12:31:56.125Z,15.23
2022-11-06T12:34:33.707Z,15.70
2022-11-06T12:37:40.165Z,15.85
2022-11-06T12:40:42.125Z,13.93
2022-11-06T12:43:34.435Z,13.15
2022-11-06T12:46:38.134Z,14.13
2022-11-06T12:49:36.380Z,14.32
2022-11-06T12:52:16.043Z,14.48
2022-11-06T12:54:53.104Z,13.57
2022-11-06T12:57:44.875Z,14.57
2022-11-06T13:00:21.099Z,11.77
2022-11-06T13:03:22.636Z,12.20
2022-11-06T13:06:15.352Z,11.55
2022-11-06T13:08:46.957Z,12.93
2022-11-06T13:11:33.708Z,12.65
2022-11-06T13:14:25.581Z,11.85
2022-11-06T13:17:06.094Z,12.43
2022-11-06T13:19:51.526Z,11.60
2022-11-06T13:22:25.664Z,10.25
2022-11-06T13:25:14.712Z,11.40
2022-11-06T13:27:50.674Z,11.23
2022-11-06T13:30:19.973Z,10.88
2022-11-06T13:33:02.954Z,11.75
2022-11-06T13:35:32.728Z,11.48
2022-11-06T13:38:04.634Z,11.70
2022-11-06T13:40:36.297Z,12.30
2022-11-06T13:43:25.038Z,11.30
2022-11-06T13:46:20.035Z,9.95
2022-11-06T13:49:01.632Z,10.10
2022-11-06T13:52:10.827Z,8.57
2022-11-06T13:55:02.689Z,9.23
2022-11-06T13:57:44.160Z,7.30
2022-11-06T14:00:37.013Z,7.65
2022-11-06T14:03:31.273Z,5.53
2022-11-06T14:06:30.340Z,5.78
2022-11-06T14:09:01.213Z,6.63
2022-11-06T14:11:35.720Z,6.18
2022-11-06T14:14:06.076Z,6.53
2022-11-06T14:16:38.574Z,5.65
2022-11-06T14:19:12.089Z,6.53
2022-11-06T14:21:41.826Z,6.00
2022-11-06T14:24:28.683Z,4.68
2022-11-06T14:26:56.611Z,5.75
2022-11-06T14:29:29.323Z,5.22
2022-11-06T14:32:10.468Z,5.20
2022-11-06T14:34:40.189Z,4.30
2022-11-06T14:37:19.699Z,4.30
2022-11-06T14:39:55.438Z,4.05
2022-11-06T14:42:38.362Z,5.07
2022-11-06T14:45:08.473Z,4.05
2022-11-06T14:47:54.502Z,4.43
2022-11-06T14:50:39.946Z,4.32
2022-11-06T14:53:24.111Z,4.32
2022-11-06T14:55:59.046Z,3.80
2022-11-06T14:58:31.504Z,3.75
2022-11-06T15:01:10.559Z,3.85
2022-11-06T15:03:46.562Z,4.15
2022-11-06T15:06:19.196Z,4.22
2022-11-06T15:08:49.338Z,3.90
2022-11-06T15:11:32.092Z,4.43
2022-11-06T15:14:07.744Z,4.93
2022-11-06T15:16:49.815Z,4.90
2022-11-06T15:19:25.058Z,3.25
2022-11-06T15:22:18.925Z,4.60
2022-11-06T15:24:55.873Z,4.65
2022-11-06T15:27:28.405Z,3.42
2022-11-06T15:30:00.393Z,4.05
2022-11-06T15:32:31.396Z,3.78
2022-11-06T15:35:13.841Z,4.20
2022-11-06T15:37:48.814Z,3.67
2022-11-06T15:40:28.987Z,3.38
2022-11-06T15:42:57.943Z,3.60
2022-11-06T15:45:27.667Z,4.55
2022-11-06T15:48:04.218Z,4.30
2022-11-06T15:50:35.960Z,4.25
2022-11-06T15:53:30.224Z,5.10
2022-11-06T15:56:01.825Z,4.47
2022-11-06T15:58:36.936Z,4.65
2022-11-06T16:01:05.973Z,4.22
2022-11-06T16:03:53.487Z,3.97
2022-11-06T16:06:20.913Z,4.25
2022-11-06T16:08:50.372Z,4.28
2022-11-06T16:11:20.505Z,4.80
2022-11-06T16:13:48.236Z,3.40
2022-11-06T16:16:41.867Z,3.78
2022-11-06T16:19:31.244Z,2.92
2022-11-06T16:22:03.458Z,3.85
2022-11-06T16:24:46.119Z,4.18
2022-11-06T16:27:14.179Z,3.50
2022-11-06T16:29:48.409Z,3.03
2022-11-06T16:32:20.989Z,4.47
2022-11-06T16:34:49.316Z,3.63
2022-11-06T16:37:16.116Z,3.55
2022-11-06T16:39:53.617Z,5.78
2022-11-06T16:42:26.959Z,3.55
2022-11-06T16:45:19.998Z,4.35
2022-11-06T16:48:16.155Z,4.05
2022-11-06T16:50:49.748Z,4.87
2022-11-06T16:53:25.032Z,3.95
2022-11-06T16:56:05.490Z,3.73
2022-11-06T16:58:35.903Z,3.05
2022-11-06T17:01:05.793Z,4.35
2022-11-06T17:03:55.232Z,4.30
2022-11-06T17:06:34.073Z,4.57
2022-11-06T17:09:23.365Z,5.13
2022-11-06T17:11:58.769Z,4.50
2022-11-06T17:14:26.130Z,2.92
2022-11-06T17:16:57.768Z,4.93
2022-11-06T17:19:26.071Z,4.95
2022-11-06T17:21:53.506Z,5.43
2022-11-06T17:24:37.285Z,5.10
2022-11-06T17:27:05.372Z,5.60
2022-11-06T17:29:34.007Z,4.03
2022-11-06T17:32:00.829Z,4.28
2022-11-06T17:34:27.703Z,4.40
2022-11-06T17:36:54.671Z,3.58
2022-11-06T17:39:22.603Z,4.68
2022-11-06T17:41:49.523Z,5.30
2022-11-06T17:44:17.420Z,5.97
2022-11-06T17:46:46.737Z,4.97
2022-11-06T17:49:17.982Z,4.60
2022-11-06T17:52:00.475Z,6.43
2022-11-06T17:54:32.915Z,5.40
2022-11-06T17:57:02.410Z,3.55
2022-11-06T17:59:29.250Z,6.13
2022-11-06T18:01:56.357Z,5.53
2022-11-06T18:04:25.334Z,5.38
2022-11-06T18:06:53.311Z,4.95
2022-11-06T18:09:21.491Z,4.47
2022-11-06T18:11:52.414Z,5.50
2022-11-06T18:14:20.854Z,5.80
2022-11-06T18:16:48.256Z,3.78
2022-11-06T18:19:17.253Z,3.97
2022-11-06T18:21:44.165Z,4.20
2022-11-06T18:24:11.149Z,4.95
2022-11-06T18:26:37.993Z,3.63
2022-11-06T18:29:06.399Z,4.10
2022-11-06T18:31:34.156Z,5.80
2022-11-06T18:34:01.117Z,6.65
2022-11-06T18:36:27.958Z,5.80
2022-11-06T18:38:55.096Z,6.93
2022-11-06T18:41:22.530Z,4.72
2022-11-06T18:43:49.974Z,5.28
2022-11-06T18:46:18.933Z,6.35
2022-11-06T18:48:46.266Z,5.22
2022-11-06T18:51:33.461Z,4.55
2022-11-06T18:54:04.619Z,5.53
2022-11-06T18:56:32.178Z,4.95
2022-11-06T18:59:00.093Z,4.90
2022-11-06T19:01:27.982Z,3.88
2022-11-06T19:03:55.098Z,4.80
2022-11-06T19:06:22.274Z,8.45
2022-11-06T19:08:49.350Z,8.38
2022-11-06T19:11:18.100Z,6.38
2022-11-06T19:13:48.210Z,6.32
2022-11-06T19:16:18.615Z,7.95
2022-11-06T19:18:45.763Z,6.70
2022-11-06T19:21:13.427Z,6.07
2022-11-06T19:23:43.224Z,7.53
2022-11-06T19:29:00.671Z,7.63
2022-11-06T19:31:29.175Z,6.60
2022-11-06T19:33:57.588Z,8.27
2022-11-06T19:36:25.378Z,7.28
2022-11-06T19:38:53.223Z,5.20
2022-11-06T19:41:20.708Z,6.30
2022-11-06T19:43:47.607Z,6.40
2022-11-06T19:46:18.248Z,6.03
2022-11-06T19:48:48.553Z,6.07
2022-11-06T19:51:16.923Z,4.85
2022-11-06T19:53:43.916Z,5.18
2022-11-06T19:56:16.763Z,4.45
2022-11-06T19:58:43.820Z,4.18
2022-11-06T20:01:15.816Z,3.97
2022-11-06T20:03:43.065Z,4.40
2022-11-06T20:06:10.715Z,4.75
2022-11-06T20:08:38.946Z,4.47
2022-11-06T20:11:07.895Z,4.28
2022-11-06T20:13:39.095Z,3.38
2022-11-06T20:16:09.593Z,3.28
2022-11-06T20:18:36.839Z,5.35
2022-11-06T20:21:10.036Z,6.47
2022-11-06T20:23:37.735Z,6.00
2022-11-06T20:26:06.657Z,6.32
2022-11-06T20:28:34.078Z,5.25
2022-11-06T20:31:08.316Z,5.43
2022-11-06T20:33:36.207Z,4.13
2022-11-06T20:36:10.438Z,3.38
2022-11-06T20:38:37.344Z,4.53
2022-11-06T20:41:04.386Z,5.30
2022-11-06T20:43:31.583Z,4.28
2022-11-06T20:46:02.982Z,7.25
2022-11-06T20:48:31.608Z,5.35
2022-11-06T20:51:11.590Z,3.40
2022-11-06T20:53:39.359Z,7.18
2022-11-06T20:56:09.005Z,5.50
2022-11-06T20:58:36.497Z,3.38
2022-11-06T21:01:16.762Z,6.35
2022-11-06T21:03:44.869Z,4.65
2022-11-06T21:06:11.844Z,3.50
2022-11-06T21:08:41.248Z,4.10
2022-11-06T21:11:13.674Z,4.68
2022-11-06T21:13:41.485Z,4.40
2022-11-06T21:16:14.639Z,3.70
2022-11-06T21:18:54.428Z,7.28
2022-11-06T21:21:24.727Z,6.30
2022-11-06T21:23:53.320Z,4.88
2022-11-06T21:26:25.649Z,6.85
2022-11-06T21:28:52.839Z,6.93
2022-11-06T21:31:23.083Z,7.07
2022-11-06T21:33:51.742Z,8.18
2022-11-06T21:36:23.046Z,4.18
2022-11-06T21:38:49.972Z,7.72
2022-11-06T21:41:19.652Z,4.85
2022-11-06T21:43:54.098Z,6.05
2022-11-06T21:46:22.198Z,5.80
2022-11-06T21:48:50.311Z,3.92
2022-11-06T21:51:26.896Z,7.60
2022-11-06T21:54:14.538Z,7.85
2022-11-06T21:56:42.726Z,5.25
2022-11-06T21:59:12.373Z,4.90
2022-11-06T22:01:40.740Z,6.00
2022-11-06T22:04:08.631Z,5.68
2022-11-06T22:06:35.983Z,5.13
2022-11-06T22:09:04.297Z,6.90
2022-11-06T22:11:36.552Z,6.47
2022-11-06T22:14:07.366Z,6.35
2022-11-06T22:16:36.875Z,4.70
2022-11-06T22:19:06.865Z,4.85
2022-11-06T22:21:34.207Z,3.35
2022-11-06T22:24:01.206Z,4.30
2022-11-06T22:26:31.333Z,3.63
2022-11-06T22:29:00.790Z,5.20
2022-11-06T22:31:28.881Z,5.80
2022-11-06T22:33:56.827Z,6.60
2022-11-06T22:36:25.557Z,4.93
2022-11-06T22:38:53.499Z,5.13
2022-11-06T22:41:23.697Z,5.63
2022-11-06T22:43:51.045Z,5.05
2022-11-06T22:46:22.276Z,5.93
2022-11-06T22:48:50.360Z,4.13
2022-11-06T22:51:20.012Z,5.30
2022-11-06T22:53:47.339Z,6.22
2022-11-06T22:56:14.562Z,4.70
2022-11-06T22:58:41.977Z,3.58
2022-11-06T23:01:10.584Z,4.10
2022-11-06T23:03:38.273Z,4.55
2022-11-06T23:06:07.691Z,5.95
2022-11-06T23:08:36.748Z,3.75
2022-11-06T23:11:12.622Z,3.85
2022-11-06T23:13:40.410Z,4.15
2022-11-06T23:16:17.848Z,5.40
2022-11-06T23:18:45.553Z,5.10
2022-11-06T23:21:18.120Z,4.00
2022-11-06T23:23:45.917Z,4.80
2022-11-06T23:26:17.140Z,2.70
2022-11-06T23:28:45.285Z,4.72
2022-11-06T23:31:14.726Z,4.55
2022-11-06T23:33:42.536Z,5.97
2022-11-06T23:36:12.008Z,4.65
2022-11-06T23:38:39.013Z,4.13
2022-11-06T23:41:29.967Z,4.45
2022-11-06T23:43:57.437Z,4.65
2022-11-06T23:46:32.786Z,4.07
2022-11-06T23:49:00.301Z,3.72
2022-11-06T23:51:28.081Z,4.43
2022-11-06T23:53:55.310Z,3.63
2022-11-06T23:56:22.400Z,3.53
2022-11-06T23:58:49.332Z,3.10
